sensor_id;sensor_type;location;lat;lon;timestamp;pressure;altitude;pressure_sealevel;temperature;humidity
71638;BME280;59485;43.542;-5.676;2022-08-19T00:01:28;102164.44;;;16.59;77.62
71638;BME280;59485;43.542;-5.676;2022-08-19T00:03:57;102140.63;;;16.43;77.97
71638;BME280;59485;43.542;-5.676;2022-08-19T00:06:23;102152.56;;;16.43;78.27
71638;BME280;59485;43.542;-5.676;2022-08-19T00:08:48;102163.72;;;16.50;77.96
71638;BME280;59485;43.542;-5.676;2022-08-19T00:11:16;102134.16;;;16.36;78.29
71638;BME280;59485;43.542;-5.676;2022-08-19T00:13:42;102156.44;;;16.49;78.17
71638;BME280;59485;43.542;-5.676;2022-08-19T00:16:08;102157.50;;;16.48;78.34
71638;BME280;59485;43.542;-5.676;2022-08-19T00:18:34;102160.28;;;16.48;78.38
71638;BME280;59485;43.542;-5.676;2022-08-19T00:20:59;102131.97;;;16.31;78.42
71638;BME280;59485;43.542;-5.676;2022-08-19T00:23:26;102157.19;;;16.36;78.47
71638;BME280;59485;43.542;-5.676;2022-08-19T00:25:52;102150.50;;;16.31;78.83
71638;BME280;59485;43.542;-5.676;2022-08-19T00:28:18;102157.28;;;16.28;78.94
71638;BME280;59485;43.542;-5.676;2022-08-19T00:30:44;102142.69;;;16.20;78.81
71638;BME280;59485;43.542;-5.676;2022-08-19T00:33:10;102134.31;;;16.13;78.78
71638;BME280;59485;43.542;-5.676;2022-08-19T00:35:35;102108.09;;;15.94;78.88
71638;BME280;59485;43.542;-5.676;2022-08-19T00:38:04;102142.78;;;16.11;79.17
71638;BME280;59485;43.542;-5.676;2022-08-19T00:40:30;102156.25;;;16.14;78.95
71638;BME280;59485;43.542;-5.676;2022-08-19T00:42:56;102148.44;;;16.03;79.34
71638;BME280;59485;43.542;-5.676;2022-08-19T00:45:23;102153.59;;;16.06;79.62
71638;BME280;59485;43.542;-5.676;2022-08-19T00:47:49;102151.69;;;16.07;79.47
71638;BME280;59485;43.542;-5.676;2022-08-19T00:50:17;102155.75;;;16.11;79.32
71638;BME280;59485;43.542;-5.676;2022-08-19T00:52:45;102150.44;;;16.09;79.34
71638;BME280;59485;43.542;-5.676;2022-08-19T00:55:21;102124.59;;;16.02;79.83
71638;BME280;59485;43.542;-5.676;2022-08-19T00:57:53;102147.47;;;16.11;79.84
71638;BME280;59485;43.542;-5.676;2022-08-19T01:00:21;102142.34;;;16.08;79.93
71638;BME280;59485;43.542;-5.676;2022-08-19T01:02:47;102136.13;;;16.06;79.99
71638;BME280;59485;43.542;-5.676;2022-08-19T01:05:16;102109.25;;;15.85;80.35
71638;BME280;59485;43.542;-5.676;2022-08-19T01:07:47;102103.72;;;15.85;80.33
71638;BME280;59485;43.542;-5.676;2022-08-19T01:10:20;102120.13;;;16.01;80.35
71638;BME280;59485;43.542;-5.676;2022-08-19T01:12:47;102089.03;;;15.85;80.67
71638;BME280;59485;43.542;-5.676;2022-08-19T01:15:16;102124.81;;;16.01;80.89
71638;BME280;59485;43.542;-5.676;2022-08-19T01:17:44;102121.44;;;16.05;80.79
71638;BME280;59485;43.542;-5.676;2022-08-19T01:20:14;102118.69;;;16.05;80.86
71638;BME280;59485;43.542;-5.676;2022-08-19T01:22:45;102111.34;;;15.98;80.73
71638;BME280;59485;43.542;-5.676;2022-08-19T01:25:17;102108.97;;;15.95;81.21
71638;BME280;59485;43.542;-5.676;2022-08-19T01:27:46;102089.81;;;15.79;80.97
71638;BME280;59485;43.542;-5.676;2022-08-19T01:30:26;102103.91;;;15.84;81.05
71638;BME280;59485;43.542;-5.676;2022-08-19T01:32:52;102102.00;;;15.84;81.67
71638;BME280;59485;43.542;-5.676;2022-08-19T01:35:19;102104.78;;;15.84;81.66
71638;BME280;59485;43.542;-5.676;2022-08-19T01:37:57;102101.16;;;15.84;81.85
71638;BME280;59485;43.542;-5.676;2022-08-19T01:40:26;102079.72;;;15.71;81.76
71638;BME280;59485;43.542;-5.676;2022-08-19T01:42:53;102094.56;;;15.85;81.90
71638;BME280;59485;43.542;-5.676;2022-08-19T01:45:22;102097.56;;;15.83;81.78
71638;BME280;59485;43.542;-5.676;2022-08-19T01:47:48;102093.53;;;15.86;82.07
71638;BME280;59485;43.542;-5.676;2022-08-19T01:50:14;102090.31;;;15.82;82.17
71638;BME280;59485;43.542;-5.676;2022-08-19T01:52:41;102081.34;;;15.80;82.18
71638;BME280;59485;43.542;-5.676;2022-08-19T01:55:11;102058.41;;;15.65;82.27
71638;BME280;59485;43.542;-5.676;2022-08-19T01:57:37;102057.44;;;15.58;82.23
71638;BME280;59485;43.542;-5.676;2022-08-19T02:00:09;102066.00;;;15.63;82.42
71638;BME280;59485;43.542;-5.676;2022-08-19T02:02:35;102088.69;;;15.73;82.92
71638;BME280;59485;43.542;-5.676;2022-08-19T02:05:01;102061.25;;;15.57;82.66
71638;BME280;59485;43.542;-5.676;2022-08-19T02:07:26;102075.72;;;15.59;83.05
71638;BME280;59485;43.542;-5.676;2022-08-19T02:09:54;102054.72;;;15.50;83.18
71638;BME280;59485;43.542;-5.676;2022-08-19T02:12:21;102075.34;;;15.62;83.00
71638;BME280;59485;43.542;-5.676;2022-08-19T02:14:46;102062.31;;;15.56;83.16
71638;BME280;59485;43.542;-5.676;2022-08-19T02:17:12;102055.59;;;15.50;83.08
71638;BME280;59485;43.542;-5.676;2022-08-19T02:19:37;102064.03;;;15.57;83.20
71638;BME280;59485;43.542;-5.676;2022-08-19T02:22:03;102078.13;;;15.62;83.34
71638;BME280;59485;43.542;-5.676;2022-08-19T02:24:29;102071.91;;;15.60;83.35
71638;BME280;59485;43.542;-5.676;2022-08-19T02:26:54;102052.63;;;15.52;83.19
71638;BME280;59485;43.542;-5.676;2022-08-19T02:29:20;102058.88;;;15.54;83.25
71638;BME280;59485;43.542;-5.676;2022-08-19T02:31:48;102066.28;;;15.53;83.56
71638;BME280;59485;43.542;-5.676;2022-08-19T02:34:14;102075.91;;;15.57;83.32
71638;BME280;59485;43.542;-5.676;2022-08-19T02:36:40;102078.69;;;15.57;83.54
71638;BME280;59485;43.542;-5.676;2022-08-19T02:39:05;102017.13;;;15.19;83.55
71638;BME280;59485;43.542;-5.676;2022-08-19T02:41:33;102066.78;;;15.57;83.71
71638;BME280;59485;43.542;-5.676;2022-08-19T02:44:00;102076.13;;;15.56;83.91
71638;BME280;59485;43.542;-5.676;2022-08-19T02:46:29;102065.78;;;15.50;83.92
71638;BME280;59485;43.542;-5.676;2022-08-19T02:48:57;102058.53;;;15.49;83.90
71638;BME280;59485;43.542;-5.676;2022-08-19T02:51:26;102077.00;;;15.56;83.77
71638;BME280;59485;43.542;-5.676;2022-08-19T02:53:52;102077.31;;;15.53;83.84
71638;BME280;59485;43.542;-5.676;2022-08-19T02:56:19;102086.00;;;15.50;83.85
71638;BME280;59485;43.542;-5.676;2022-08-19T02:58:46;102066.84;;;15.49;84.11
71638;BME280;59485;43.542;-5.676;2022-08-19T03:01:29;102067.31;;;15.52;83.96
71638;BME280;59485;43.542;-5.676;2022-08-19T03:03:57;102066.19;;;15.47;83.86
71638;BME280;59485;43.542;-5.676;2022-08-19T03:06:23;102053.41;;;15.31;83.97
71638;BME280;59485;43.542;-5.676;2022-08-19T03:08:48;102073.81;;;15.45;84.70
71638;BME280;59485;43.542;-5.676;2022-08-19T03:11:24;102079.34;;;15.45;84.65
71638;BME280;59485;43.542;-5.676;2022-08-19T03:13:50;102077.63;;;15.44;84.58
71638;BME280;59485;43.542;-5.676;2022-08-19T03:16:17;102075.03;;;15.42;84.48
71638;BME280;59485;43.542;-5.676;2022-08-19T03:18:43;102052.34;;;15.32;84.53
71638;BME280;59485;43.542;-5.676;2022-08-19T03:21:09;102050.94;;;15.36;84.53
71638;BME280;59485;43.542;-5.676;2022-08-19T03:23:35;102071.03;;;15.45;84.38
71638;BME280;59485;43.542;-5.676;2022-08-19T03:26:06;102073.81;;;15.45;84.65
71638;BME280;59485;43.542;-5.676;2022-08-19T03:28:32;102070.38;;;15.43;84.85
71638;BME280;59485;43.542;-5.676;2022-08-19T03:31:11;102066.06;;;15.40;84.77
71638;BME280;59485;43.542;-5.676;2022-08-19T03:33:38;102044.16;;;15.24;84.87
71638;BME280;59485;43.542;-5.676;2022-08-19T03:36:19;102065.44;;;15.38;85.39
71638;BME280;59485;43.542;-5.676;2022-08-19T03:38:48;102005.59;;;15.01;84.98
71638;BME280;59485;43.542;-5.676;2022-08-19T03:41:18;102058.19;;;15.37;84.99
71638;BME280;59485;43.542;-5.676;2022-08-19T03:43:45;102053.63;;;15.29;84.89
71638;BME280;59485;43.542;-5.676;2022-08-19T03:46:17;102054.47;;;15.30;85.21
71638;BME280;59485;43.542;-5.676;2022-08-19T03:48:45;101994.91;;;14.98;84.90
71638;BME280;59485;43.542;-5.676;2022-08-19T03:51:20;102061.03;;;15.29;85.12
71638;BME280;59485;43.542;-5.676;2022-08-19T03:53:46;102049.69;;;15.24;85.00
71638;BME280;59485;43.542;-5.676;2022-08-19T03:56:12;102067.63;;;15.28;85.49
71638;BME280;59485;43.542;-5.676;2022-08-19T03:58:39;102068.47;;;15.28;85.32
71638;BME280;59485;43.542;-5.676;2022-08-19T04:01:09;102064.66;;;15.29;85.04
71638;BME280;59485;43.542;-5.676;2022-08-19T04:03:35;102070.56;;;15.26;85.35
71638;BME280;59485;43.542;-5.676;2022-08-19T04:06:16;102070.75;;;15.25;85.26
71638;BME280;59485;43.542;-5.676;2022-08-19T04:08:44;102043.00;;;15.03;85.56
71638;BME280;59485;43.542;-5.676;2022-08-19T04:11:13;102071.69;;;15.17;85.37
71638;BME280;59485;43.542;-5.676;2022-08-19T04:13:39;102048.91;;;15.00;85.85
71638;BME280;59485;43.542;-5.676;2022-08-19T04:16:06;102046.44;;;15.06;86.23
71638;BME280;59485;43.542;-5.676;2022-08-19T04:18:33;102058.94;;;15.16;86.25
71638;BME280;59485;43.542;-5.676;2022-08-19T04:20:59;102056.75;;;15.12;86.29
71638;BME280;59485;43.542;-5.676;2022-08-19T04:23:24;102066.53;;;15.14;86.03
71638;BME280;59485;43.542;-5.676;2022-08-19T04:25:50;102026.06;;;14.92;86.21
71638;BME280;59485;43.542;-5.676;2022-08-19T04:28:16;102063.97;;;15.13;86.36
71638;BME280;59485;43.542;-5.676;2022-08-19T04:30:44;102036.69;;;14.95;86.04
71638;BME280;59485;43.542;-5.676;2022-08-19T04:33:10;102041.84;;;14.98;86.43
71638;BME280;59485;43.542;-5.676;2022-08-19T04:35:40;102062.44;;;15.10;86.44
71638;BME280;59485;43.542;-5.676;2022-08-19T04:38:07;102057.09;;;15.09;86.60
71638;BME280;59485;43.542;-5.676;2022-08-19T04:40:38;102049.59;;;15.02;86.82
71638;BME280;59485;43.542;-5.676;2022-08-19T04:43:22;102032.03;;;14.95;86.49
71638;BME280;59485;43.542;-5.676;2022-08-19T04:45:48;102050.06;;;15.06;86.49
71638;BME280;59485;43.542;-5.676;2022-08-19T04:48:14;102062.72;;;15.15;86.52
71638;BME280;59485;43.542;-5.676;2022-08-19T04:50:41;102059.09;;;15.15;86.04
71638;BME280;59485;43.542;-5.676;2022-08-19T04:53:07;102035.03;;;15.09;85.94
71638;BME280;59485;43.542;-5.676;2022-08-19T04:55:33;102044.84;;;15.11;85.97
71638;BME280;59485;43.542;-5.676;2022-08-19T04:58:01;102036.91;;;15.08;86.04
71638;BME280;59485;43.542;-5.676;2022-08-19T05:00:27;102049.59;;;15.17;86.05
71638;BME280;59485;43.542;-5.676;2022-08-19T05:02:53;102062.19;;;15.20;86.03
71638;BME280;59485;43.542;-5.676;2022-08-19T05:05:19;102064.63;;;15.15;85.95
71638;BME280;59485;43.542;-5.676;2022-08-19T05:07:45;102061.00;;;15.14;86.41
71638;BME280;59485;43.542;-5.676;2022-08-19T05:10:10;102058.44;;;15.13;86.30
71638;BME280;59485;43.542;-5.676;2022-08-19T05:12:36;102064.44;;;15.16;86.46
71638;BME280;59485;43.542;-5.676;2022-08-19T05:15:04;102057.56;;;15.12;86.14
71638;BME280;59485;43.542;-5.676;2022-08-19T05:17:30;102041.75;;;15.06;86.14
71638;BME280;59485;43.542;-5.676;2022-08-19T05:19:56;102051.78;;;15.07;86.35
71638;BME280;59485;43.542;-5.676;2022-08-19T05:22:42;102055.22;;;15.09;86.26
71638;BME280;59485;43.542;-5.676;2022-08-19T05:25:12;102056.25;;;15.08;86.45
71638;BME280;59485;43.542;-5.676;2022-08-19T05:27:38;102019.56;;;14.85;86.59
71638;BME280;59485;43.542;-5.676;2022-08-19T05:30:04;102048.41;;;14.97;86.27
71638;BME280;59485;43.542;-5.676;2022-08-19T05:32:30;102026.41;;;14.89;86.63
71638;BME280;59485;43.542;-5.676;2022-08-19T05:34:56;102044.63;;;14.98;86.75
71638;BME280;59485;43.542;-5.676;2022-08-19T05:37:21;101981.22;;;14.52;86.48
71638;BME280;59485;43.542;-5.676;2022-08-19T05:39:47;102069.38;;;15.06;86.67
71638;BME280;59485;43.542;-5.676;2022-08-19T05:42:14;102079.97;;;15.02;86.48
71638;BME280;59485;43.542;-5.676;2022-08-19T05:44:43;102081.66;;;15.03;86.68
71638;BME280;59485;43.542;-5.676;2022-08-19T05:47:14;102075.94;;;15.05;86.56
71638;BME280;59485;43.542;-5.676;2022-08-19T05:49:41;102070.59;;;15.03;86.77
71638;BME280;59485;43.542;-5.676;2022-08-19T05:52:09;102075.41;;;15.10;86.53
71638;BME280;59485;43.542;-5.676;2022-08-19T05:54:37;102079.47;;;15.14;86.48
71638;BME280;59485;43.542;-5.676;2022-08-19T05:57:06;102083.09;;;15.14;85.88
71638;BME280;59485;43.542;-5.676;2022-08-19T05:59:32;102050.81;;;15.00;86.59
71638;BME280;59485;43.542;-5.676;2022-08-19T06:02:01;102086.00;;;15.21;86.32
71638;BME280;59485;43.542;-5.676;2022-08-19T06:04:27;102091.31;;;15.22;86.18
71638;BME280;59485;43.542;-5.676;2022-08-19T06:06:54;102072.06;;;15.14;86.34
71638;BME280;59485;43.542;-5.676;2022-08-19T06:09:23;102089.22;;;15.24;86.32
71638;BME280;59485;43.542;-5.676;2022-08-19T06:11:54;102097.81;;;15.29;86.18
71638;BME280;59485;43.542;-5.676;2022-08-19T06:14:23;102072.06;;;15.14;86.23
71638;BME280;59485;43.542;-5.676;2022-08-19T06:16:50;102102.94;;;15.32;86.07
71638;BME280;59485;43.542;-5.676;2022-08-19T06:19:19;102089.91;;;15.26;85.91
71638;BME280;59485;43.542;-5.676;2022-08-19T06:21:47;102041.84;;;14.98;85.96
71638;BME280;59485;43.542;-5.676;2022-08-19T06:24:15;102078.66;;;15.28;86.19
71638;BME280;59485;43.542;-5.676;2022-08-19T06:26:45;102103.16;;;15.46;85.62
71638;BME280;59485;43.542;-5.676;2022-08-19T06:29:13;102084.56;;;15.39;85.78
71638;BME280;59485;43.542;-5.676;2022-08-19T06:31:47;102096.00;;;15.51;85.56
71638;BME280;59485;43.542;-5.676;2022-08-19T06:34:15;102077.25;;;15.47;85.74
71638;BME280;59485;43.542;-5.676;2022-08-19T06:36:44;102098.59;;;15.67;85.54
71638;BME280;59485;43.542;-5.676;2022-08-19T06:39:22;102077.44;;;15.60;85.42
71638;BME280;59485;43.542;-5.676;2022-08-19T06:41:50;102092.50;;;15.72;85.16
71638;BME280;59485;43.542;-5.676;2022-08-19T06:44:18;102101.94;;;15.77;84.75
71638;BME280;59485;43.542;-5.676;2022-08-19T06:46:44;102075.91;;;15.72;84.54
71638;BME280;59485;43.542;-5.676;2022-08-19T06:49:09;102090.19;;;15.90;84.33
71638;BME280;59485;43.542;-5.676;2022-08-19T06:51:40;102089.59;;;15.95;84.41
71638;BME280;59485;43.542;-5.676;2022-08-19T06:54:05;102087.31;;;15.98;83.82
71638;BME280;59485;43.542;-5.676;2022-08-19T06:56:32;102076.53;;;16.03;83.49
71638;BME280;59485;43.542;-5.676;2022-08-19T06:59:09;102063.28;;;15.99;82.97
71638;BME280;59485;43.542;-5.676;2022-08-19T07:01:41;102087.56;;;16.18;82.80
71638;BME280;59485;43.542;-5.676;2022-08-19T07:04:08;102084.19;;;16.23;82.59
71638;BME280;59485;43.542;-5.676;2022-08-19T07:06:35;102087.03;;;16.29;82.34
71638;BME280;59485;43.542;-5.676;2022-08-19T07:09:01;102080.44;;;16.30;82.09
71638;BME280;59485;43.542;-5.676;2022-08-19T07:11:27;102091.72;;;16.29;81.41
71638;BME280;59485;43.542;-5.676;2022-08-19T07:13:53;102085.78;;;16.32;81.97
71638;BME280;59485;43.542;-5.676;2022-08-19T07:16:21;102087.75;;;16.38;82.02
71638;BME280;59485;43.542;-5.676;2022-08-19T07:18:48;102078.22;;;16.40;81.57
71638;BME280;59485;43.542;-5.676;2022-08-19T07:21:22;102068.47;;;16.44;81.56
71638;BME280;59485;43.542;-5.676;2022-08-19T07:23:50;102083.72;;;16.55;81.26
71638;BME280;59485;43.542;-5.676;2022-08-19T07:28:47;102087.00;;;16.65;80.98
71638;BME280;59485;43.542;-5.676;2022-08-19T07:31:18;102093.50;;;16.72;80.92
71638;BME280;59485;43.542;-5.676;2022-08-19T07:33:45;102090.13;;;16.77;81.08
71638;BME280;59485;43.542;-5.676;2022-08-19T07:36:13;102089.13;;;16.84;80.70
71638;BME280;59485;43.542;-5.676;2022-08-19T07:38:42;102089.38;;;16.90;80.82
71638;BME280;59485;43.542;-5.676;2022-08-19T07:41:13;102081.13;;;16.96;80.67
71638;BME280;59485;43.542;-5.676;2022-08-19T07:43:40;102086.50;;;17.04;80.66
71638;BME280;59485;43.542;-5.676;2022-08-19T07:46:06;102086.56;;;17.11;80.21
71638;BME280;59485;43.542;-5.676;2022-08-19T07:48:32;102068.88;;;17.12;79.87
71638;BME280;59485;43.542;-5.676;2022-08-19T07:51:00;102091.16;;;17.25;79.72
71638;BME280;59485;43.542;-5.676;2022-08-19T07:53:31;102092.91;;;17.33;79.53
71638;BME280;59485;43.542;-5.676;2022-08-19T07:55:56;102077.16;;;17.33;79.39
71638;BME280;59485;43.542;-5.676;2022-08-19T07:58:37;102099.84;;;17.50;79.02
71638;BME280;59485;43.542;-5.676;2022-08-19T08:01:06;102088.41;;;17.59;79.22
71638;BME280;59485;43.542;-5.676;2022-08-19T08:03:32;102094.00;;;17.66;78.46
71638;BME280;59485;43.542;-5.676;2022-08-19T08:06:16;102076.97;;;17.69;78.03
71638;BME280;59485;43.542;-5.676;2022-08-19T08:09:02;102082.19;;;17.92;77.96
71638;BME280;59485;43.542;-5.676;2022-08-19T08:11:45;102057.66;;;17.89;77.23
71638;BME280;59485;43.542;-5.676;2022-08-19T08:14:25;102088.47;;;18.14;76.65
71638;BME280;59485;43.542;-5.676;2022-08-19T08:16:51;102080.16;;;18.20;76.16
71638;BME280;59485;43.542;-5.676;2022-08-19T08:19:20;102081.69;;;18.36;75.72
71638;BME280;59485;43.542;-5.676;2022-08-19T08:21:46;102076.16;;;18.43;75.38
71638;BME280;59485;43.542;-5.676;2022-08-19T08:24:12;102074.66;;;18.47;75.65
71638;BME280;59485;43.542;-5.676;2022-08-19T08:26:38;102073.41;;;18.49;75.33
71638;BME280;59485;43.542;-5.676;2022-08-19T08:29:04;102063.16;;;18.50;75.11
71638;BME280;59485;43.542;-5.676;2022-08-19T08:31:29;102088.84;;;18.65;74.46
71638;BME280;59485;43.542;-5.676;2022-08-19T08:33:55;102085.19;;;18.71;74.07
71638;BME280;59485;43.542;-5.676;2022-08-19T08:36:21;102076.25;;;18.76;73.75
71638;BME280;59485;43.542;-5.676;2022-08-19T08:38:48;102088.66;;;18.93;73.74
71638;BME280;59485;43.542;-5.676;2022-08-19T08:41:19;102080.31;;;18.99;74.26
71638;BME280;59485;43.542;-5.676;2022-08-19T08:43:50;102070.47;;;19.03;73.72
71638;BME280;59485;43.542;-5.676;2022-08-19T08:46:40;102083.28;;;19.11;73.12
71638;BME280;59485;43.542;-5.676;2022-08-19T08:49:28;102065.34;;;19.14;72.90
71638;BME280;59485;43.542;-5.676;2022-08-19T08:52:13;102076.44;;;19.27;72.59
71638;BME280;59485;43.542;-5.676;2022-08-19T08:54:43;102082.00;;;19.27;72.16
71638;BME280;59485;43.542;-5.676;2022-08-19T08:57:32;102075.34;;;19.34;73.10
71638;BME280;59485;43.542;-5.676;2022-08-19T09:00:02;102049.69;;;19.26;72.80
71638;BME280;59485;43.542;-5.676;2022-08-19T09:02:30;102068.50;;;19.37;72.73
71638;BME280;59485;43.542;-5.676;2022-08-19T09:04:58;102083.69;;;19.54;71.87
71638;BME280;59485;43.542;-5.676;2022-08-19T09:10:13;102081.72;;;19.61;71.71
71638;BME280;59485;43.542;-5.676;2022-08-19T09:12:53;102083.88;;;19.66;71.62
71638;BME280;59485;43.542;-5.676;2022-08-19T09:15:28;102062.72;;;19.52;71.36
71638;BME280;59485;43.542;-5.676;2022-08-19T09:17:59;102082.19;;;19.58;72.40
71638;BME280;59485;43.542;-5.676;2022-08-19T09:20:27;102088.38;;;19.60;72.66
71638;BME280;59485;43.542;-5.676;2022-08-19T09:22:53;102089.00;;;19.62;72.56
71638;BME280;59485;43.542;-5.676;2022-08-19T09:25:20;102090.94;;;19.62;72.89
71638;BME280;59485;43.542;-5.676;2022-08-19T09:27:51;102093.94;;;19.60;72.80
71638;BME280;59485;43.542;-5.676;2022-08-19T09:30:30;102089.47;;;19.59;73.14
71638;BME280;59485;43.542;-5.676;2022-08-19T09:32:58;102071.91;;;19.52;71.45
71638;BME280;59485;43.542;-5.676;2022-08-19T09:35:26;102085.41;;;19.55;71.43
71638;BME280;59485;43.542;-5.676;2022-08-19T09:37:54;102078.97;;;19.55;71.78
71638;BME280;59485;43.542;-5.676;2022-08-19T09:40:20;102069.97;;;19.46;71.09
71638;BME280;59485;43.542;-5.676;2022-08-19T09:42:46;102072.38;;;19.49;71.63
71638;BME280;59485;43.542;-5.676;2022-08-19T09:45:16;102067.88;;;19.48;71.73
71638;BME280;59485;43.542;-5.676;2022-08-19T09:47:42;102078.97;;;19.55;71.25
71638;BME280;59485;43.542;-5.676;2022-08-19T09:50:10;102072.78;;;19.53;71.83
71638;BME280;59485;43.542;-5.676;2022-08-19T09:52:38;102070.84;;;19.53;71.61
71638;BME280;59485;43.542;-5.676;2022-08-19T09:55:08;102054.38;;;19.45;71.53
71638;BME280;59485;43.542;-5.676;2022-08-19T09:57:35;102073.84;;;19.52;71.69
71638;BME280;59485;43.542;-5.676;2022-08-19T10:00:01;102077.25;;;19.54;72.35
71638;BME280;59485;43.542;-5.676;2022-08-19T10:02:27;102053.31;;;19.39;72.50
71638;BME280;59485;43.542;-5.676;2022-08-19T10:04:52;102072.97;;;19.51;72.51
71638;BME280;59485;43.542;-5.676;2022-08-19T10:07:37;102056.06;;;19.46;73.53
71638;BME280;59485;43.542;-5.676;2022-08-19T10:10:06;102075.75;;;19.64;74.08
71638;BME280;59485;43.542;-5.676;2022-08-19T10:12:32;102077.88;;;19.62;74.71
71638;BME280;59485;43.542;-5.676;2022-08-19T10:14:59;102073.81;;;19.65;74.51
71638;BME280;59485;43.542;-5.676;2022-08-19T10:17:25;102072.06;;;19.70;74.84
71638;BME280;59485;43.542;-5.676;2022-08-19T10:19:51;102056.69;;;19.61;75.33
71638;BME280;59485;43.542;-5.676;2022-08-19T10:22:18;102068.44;;;19.70;75.78
71638;BME280;59485;43.542;-5.676;2022-08-19T10:24:45;102064.81;;;19.69;76.45
71638;BME280;59485;43.542;-5.676;2022-08-19T10:27:11;102068.88;;;19.73;75.49
71638;BME280;59485;43.542;-5.676;2022-08-19T10:29:38;102068.69;;;19.68;75.76
71638;BME280;59485;43.542;-5.676;2022-08-19T10:32:06;102077.22;;;19.73;76.83
71638;BME280;59485;43.542;-5.676;2022-08-19T10:34:33;102064.81;;;19.69;77.13
71638;BME280;59485;43.542;-5.676;2022-08-19T10:36:59;102068.19;;;19.84;76.31
71638;BME280;59485;43.542;-5.676;2022-08-19T10:39:31;102075.91;;;19.82;76.18
71638;BME280;59485;43.542;-5.676;2022-08-19T10:41:57;102062.41;;;19.79;76.07
71638;BME280;59485;43.542;-5.676;2022-08-19T10:44:23;102056.19;;;19.84;76.28
71638;BME280;59485;43.542;-5.676;2022-08-19T10:46:49;102058.78;;;19.85;76.59
71638;BME280;59485;43.542;-5.676;2022-08-19T10:49:14;102042.06;;;19.85;76.58
71638;BME280;59485;43.542;-5.676;2022-08-19T10:51:41;102062.56;;;19.98;76.45
71638;BME280;59485;43.542;-5.676;2022-08-19T10:54:26;102070.03;;;20.04;76.13
71638;BME280;59485;43.542;-5.676;2022-08-19T10:57:12;102073.19;;;20.14;76.51
71638;BME280;59485;43.542;-5.676;2022-08-19T10:59:37;102066.34;;;20.10;77.35
71638;BME280;59485;43.542;-5.676;2022-08-19T11:02:06;102076.16;;;20.19;77.08
71638;BME280;59485;43.542;-5.676;2022-08-19T11:04:32;102071.66;;;20.18;76.86
71638;BME280;59485;43.542;-5.676;2022-08-19T11:06:58;102064.16;;;20.18;77.83
71638;BME280;59485;43.542;-5.676;2022-08-19T11:09:25;102058.59;;;20.18;77.71
71638;BME280;59485;43.542;-5.676;2022-08-19T11:11:54;102064.75;;;20.27;77.63
71638;BME280;59485;43.542;-5.676;2022-08-19T11:14:22;102043.38;;;20.21;77.53
71638;BME280;59485;43.542;-5.676;2022-08-19T11:16:49;102052.72;;;20.33;77.01
71638;BME280;59485;43.542;-5.676;2022-08-19T11:19:16;102060.41;;;20.44;76.53
71638;BME280;59485;43.542;-5.676;2022-08-19T11:21:46;102061.53;;;20.37;77.15
71638;BME280;59485;43.542;-5.676;2022-08-19T11:24:18;102042.06;;;20.30;76.24
71638;BME280;59485;43.542;-5.676;2022-08-19T11:26:46;102043.69;;;20.44;75.09
71638;BME280;59485;43.542;-5.676;2022-08-19T11:29:15;102051.06;;;20.64;73.49
71638;BME280;59485;43.542;-5.676;2022-08-19T11:31:44;102034.16;;;20.58;73.45
71638;BME280;59485;43.542;-5.676;2022-08-19T11:34:14;102038.84;;;20.58;73.29
71638;BME280;59485;43.542;-5.676;2022-08-19T11:36:43;102044.28;;;20.78;73.82
71638;BME280;59485;43.542;-5.676;2022-08-19T11:39:12;102050.66;;;20.85;72.75
71638;BME280;59485;43.542;-5.676;2022-08-19T11:41:38;102034.84;;;20.79;72.83
71638;BME280;59485;43.542;-5.676;2022-08-19T11:44:04;102043.91;;;20.99;73.03
71638;BME280;59485;43.542;-5.676;2022-08-19T11:46:31;102035.75;;;20.97;71.25
71638;BME280;59485;43.542;-5.676;2022-08-19T11:48:58;102043.44;;;21.02;70.89
71638;BME280;59485;43.542;-5.676;2022-08-19T11:51:28;102030.25;;;20.91;70.94
71638;BME280;59485;43.542;-5.676;2022-08-19T11:53:55;102038.69;;;21.03;69.86
71638;BME280;59485;43.542;-5.676;2022-08-19T11:56:22;102046.69;;;20.99;69.95
71638;BME280;59485;43.542;-5.676;2022-08-19T11:58:49;102035.81;;;20.91;69.53
71638;BME280;59485;43.542;-5.676;2022-08-19T12:01:18;102048.53;;;21.05;69.59
71638;BME280;59485;43.542;-5.676;2022-08-19T12:03:46;102046.31;;;21.14;69.61
71638;BME280;59485;43.542;-5.676;2022-08-19T12:06:15;102041.56;;;21.21;69.48
71638;BME280;59485;43.542;-5.676;2022-08-19T12:08:42;102033.28;;;21.32;69.85
71638;BME280;59485;43.542;-5.676;2022-08-19T12:11:08;102030.19;;;21.22;69.48
71638;BME280;59485;43.542;-5.676;2022-08-19T12:13:35;102031.75;;;21.37;69.07
71638;BME280;59485;43.542;-5.676;2022-08-19T12:16:09;102034.78;;;21.35;69.80
71638;BME280;59485;43.542;-5.676;2022-08-19T12:18:37;102017.50;;;21.26;69.97
71638;BME280;59485;43.542;-5.676;2022-08-19T12:21:03;102037.66;;;21.47;70.38
71638;BME280;59485;43.542;-5.676;2022-08-19T12:23:29;102017.50;;;21.45;68.74
71638;BME280;59485;43.542;-5.676;2022-08-19T12:25:54;102032.53;;;21.62;69.33
71638;BME280;59485;43.542;-5.676;2022-08-19T12:28:24;102034.63;;;21.66;68.25
71638;BME280;59485;43.542;-5.676;2022-08-19T12:30:50;102030.75;;;21.67;68.83
71638;BME280;59485;43.542;-5.676;2022-08-19T12:33:17;102033.94;;;21.71;69.08
71638;BME280;59485;43.542;-5.676;2022-08-19T12:35:45;102027.09;;;21.67;68.85
71638;BME280;59485;43.542;-5.676;2022-08-19T12:38:12;102016.47;;;21.57;68.87
71638;BME280;59485;43.542;-5.676;2022-08-19T12:40:40;102020.19;;;21.69;69.64
71638;BME280;59485;43.542;-5.676;2022-08-19T12:43:06;102015.94;;;21.67;69.29
71638;BME280;59485;43.542;-5.676;2022-08-19T12:45:32;102011.75;;;21.76;68.85
71638;BME280;59485;43.542;-5.676;2022-08-19T12:47:58;102012.78;;;21.63;69.04
71638;BME280;59485;43.542;-5.676;2022-08-19T12:50:24;101994.00;;;21.70;68.71
71638;BME280;59485;43.542;-5.676;2022-08-19T12:52:50;102019.94;;;21.89;68.90